createdAt,value
2023-05-21T00:01:43.858Z,17.55
2023-05-21T00:04:12.976Z,18.17
2023-05-21T00:06:40.372Z,18.08
2023-05-21T00:09:07.988Z,18.35
2023-05-21T00:11:35.825Z,17.88
2023-05-21T00:14:03.168Z,18.75
2023-05-21T00:16:31.868Z,19.65
2023-05-21T00:18:59.308Z,19.20
2023-05-21T00:21:26.834Z,18.77
2023-05-21T00:23:56.346Z,18.58
2023-05-21T00:26:24.371Z,18.25
2023-05-21T00:28:51.715Z,18.55
2023-05-21T00:31:19.099Z,18.20
2023-05-21T00:33:47.946Z,18.75
2023-05-21T00:36:15.645Z,18.73
2023-05-21T00:38:45.478Z,19.02
2023-05-21T00:41:12.863Z,18.70
2023-05-21T00:43:40.562Z,19.58
2023-05-21T00:46:08.037Z,20.00
2023-05-21T00:48:35.763Z,20.30
2023-05-21T00:51:05.367Z,19.98
2023-05-21T00:53:34.908Z,19.63
2023-05-21T00:56:02.337Z,20.65
2023-05-21T00:58:29.714Z,20.65
2023-05-21T01:01:06.025Z,19.38
2023-05-21T01:03:38.105Z,20.17
2023-05-21T01:06:07.257Z,20.00
2023-05-21T01:08:34.921Z,20.42
2023-05-21T01:11:03.008Z,19.02
2023-05-21T01:13:30.516Z,19.80
2023-05-21T01:15:59.104Z,19.38
2023-05-21T01:18:27.146Z,19.08
2023-05-21T01:20:55.068Z,18.63
2023-05-21T01:23:23.803Z,19.30
2023-05-21T01:25:51.155Z,19.90
2023-05-21T01:28:18.500Z,20.45
2023-05-21T01:30:46.115Z,20.23
2023-05-21T01:33:16.366Z,20.73
2023-05-21T01:35:48.351Z,18.95
2023-05-21T01:38:18.451Z,18.48
2023-05-21T01:40:53.179Z,18.67
2023-05-21T01:43:20.901Z,19.30
2023-05-21T01:45:48.788Z,18.63
2023-05-21T01:48:17.321Z,18.05
2023-05-21T01:50:45.742Z,19.15
2023-05-21T01:53:13.183Z,18.65
2023-05-21T01:55:41.788Z,18.45
2023-05-21T01:58:10.903Z,18.33
2023-05-21T02:00:39.873Z,18.15
2023-05-21T02:03:07.341Z,17.15
2023-05-21T02:05:35.206Z,17.00
2023-05-21T02:08:02.725Z,18.00
2023-05-21T02:10:30.249Z,17.15
2023-05-21T02:12:57.570Z,17.10
2023-05-21T02:15:26.546Z,17.10
2023-05-21T02:17:53.936Z,17.05
2023-05-21T02:20:22.593Z,17.58
2023-05-21T02:22:50.449Z,16.67
2023-05-21T02:25:18.470Z,17.38
2023-05-21T02:27:46.703Z,17.60
2023-05-21T02:30:14.821Z,18.05
2023-05-21T02:32:44.705Z,16.17
2023-05-21T02:35:12.911Z,16.25
2023-05-21T02:37:41.264Z,17.10
2023-05-21T02:40:09.869Z,16.33
2023-05-21T02:42:39.258Z,16.67
2023-05-21T02:45:07.164Z,15.98
2023-05-21T02:47:34.543Z,16.67
2023-05-21T02:50:03.310Z,16.92
2023-05-21T02:52:30.643Z,15.52
2023-05-21T02:54:58.029Z,16.77
2023-05-21T02:57:26.529Z,15.27
2023-05-21T02:59:53.936Z,16.20
2023-05-21T03:02:21.406Z,17.10
2023-05-21T03:04:48.868Z,15.82
2023-05-21T03:07:18.842Z,17.98
2023-05-21T03:09:46.274Z,17.75
2023-05-21T03:12:13.839Z,17.33
2023-05-21T03:14:43.306Z,17.77
2023-05-21T03:17:13.820Z,18.17
2023-05-21T03:19:41.596Z,18.77
2023-05-21T03:22:09.027Z,20.35
2023-05-21T03:24:38.061Z,19.67
2023-05-21T03:27:06.474Z,20.33
2023-05-21T03:29:33.893Z,21.25
2023-05-21T03:32:01.702Z,19.27
2023-05-21T03:34:29.163Z,20.30
2023-05-21T03:36:56.523Z,20.17
2023-05-21T03:39:23.886Z,21.17
2023-05-21T03:41:52.714Z,21.70
2023-05-21T03:44:20.057Z,22.00
2023-05-21T03:46:47.406Z,20.27
2023-05-21T03:49:14.809Z,21.17
2023-05-21T03:51:42.154Z,21.20
2023-05-21T03:54:09.554Z,20.52
2023-05-21T03:56:36.877Z,20.75
2023-05-21T03:59:05.561Z,21.00
2023-05-21T04:01:33.852Z,20.90
2023-05-21T04:04:01.359Z,21.77
2023-05-21T04:06:30.139Z,21.25
2023-05-21T04:08:57.564Z,21.58
2023-05-21T04:11:24.873Z,21.23
2023-05-21T04:13:52.413Z,19.52
2023-05-21T04:16:21.150Z,20.90
2023-05-21T04:18:48.899Z,19.65
2023-05-21T04:21:16.277Z,20.08
2023-05-21T04:23:43.669Z,20.63
2023-05-21T04:26:12.598Z,20.63
2023-05-21T04:28:42.320Z,19.50
2023-05-21T04:31:09.692Z,20.35
2023-05-21T04:33:41.970Z,17.83
2023-05-21T04:36:11.371Z,18.73
2023-05-21T04:38:41.698Z,19.42
2023-05-21T04:41:10.631Z,17.80
2023-05-21T04:43:38.131Z,18.30
2023-05-21T04:46:05.907Z,18.70
2023-05-21T04:48:33.253Z,17.30
2023-05-21T04:51:05.522Z,16.83
2023-05-21T04:53:33.822Z,17.10
2023-05-21T04:56:01.173Z,17.30
2023-05-21T04:58:28.617Z,16.90
2023-05-21T05:00:56.067Z,16.38
2023-05-21T05:03:23.663Z,16.40
2023-05-21T05:05:51.510Z,16.77
2023-05-21T05:08:20.225Z,16.15
2023-05-21T05:10:47.758Z,15.57
2023-05-21T05:13:15.190Z,15.32
2023-05-21T05:15:42.513Z,15.40
2023-05-21T05:18:09.861Z,15.18
2023-05-21T05:20:37.252Z,14.57
2023-05-21T05:23:04.617Z,14.10
2023-05-21T05:25:33.319Z,14.63
2023-05-21T05:28:00.653Z,14.35
2023-05-21T05:30:28.010Z,14.68
2023-05-21T05:32:55.557Z,13.98
2023-05-21T05:35:22.935Z,13.40
2023-05-21T05:37:50.289Z,13.10
2023-05-21T05:40:17.730Z,14.40
2023-05-21T05:42:46.435Z,12.85
2023-05-21T05:45:13.868Z,13.25
2023-05-21T05:47:41.568Z,13.02
2023-05-21T05:50:09.243Z,12.77
2023-05-21T05:52:36.595Z,13.50
2023-05-21T05:55:04.110Z,13.25
2023-05-21T05:57:31.475Z,13.05
2023-05-21T06:00:00.517Z,13.55
2023-05-21T06:02:28.057Z,12.98
2023-05-21T06:04:55.436Z,13.27
2023-05-21T06:07:22.820Z,13.77
2023-05-21T06:09:50.335Z,12.68
2023-05-21T06:12:17.748Z,12.50
2023-05-21T06:14:46.121Z,12.63
2023-05-21T06:17:14.834Z,13.55
2023-05-21T06:19:42.166Z,11.52
2023-05-21T06:22:09.514Z,12.48
2023-05-21T06:24:37.134Z,11.30
2023-05-21T06:27:04.842Z,12.38
2023-05-21T06:29:32.206Z,12.00
2023-05-21T06:31:59.542Z,11.10
2023-05-21T06:34:28.584Z,12.27
2023-05-21T06:36:55.924Z,11.82
2023-05-21T06:39:24.498Z,11.80
2023-05-21T06:41:51.924Z,10.85
2023-05-21T06:44:19.392Z,10.65
2023-05-21T06:46:46.775Z,10.23
2023-05-21T06:49:14.903Z,10.25
2023-05-21T06:51:43.576Z,10.15
2023-05-21T06:54:10.909Z,9.85
2023-05-21T06:56:38.268Z,9.77
2023-05-21T06:59:05.727Z,9.50
2023-05-21T07:01:34.232Z,10.25
2023-05-21T07:04:01.630Z,10.27
2023-05-21T07:06:28.991Z,10.05
2023-05-21T07:08:57.700Z,9.07
2023-05-21T07:11:28.527Z,10.15
2023-05-21T07:13:56.593Z,10.10
2023-05-21T07:16:24.147Z,9.90
2023-05-21T07:18:51.547Z,9.10
2023-05-21T07:21:18.938Z,9.70
2023-05-21T07:23:46.333Z,9.63
2023-05-21T07:26:15.075Z,9.45
2023-05-21T07:28:42.440Z,10.07
2023-05-21T07:31:11.989Z,9.68
2023-05-21T07:33:39.339Z,10.35
2023-05-21T07:36:06.816Z,10.00
2023-05-21T07:38:34.426Z,10.20
2023-05-21T07:41:01.773Z,9.88
2023-05-21T07:43:30.592Z,9.55
2023-05-21T07:45:58.020Z,10.35
2023-05-21T07:48:25.383Z,10.32
2023-05-21T07:50:53.412Z,10.85
2023-05-21T07:53:21.039Z,10.07
2023-05-21T07:55:48.652Z,10.50
2023-05-21T07:58:16.706Z,10.40
2023-05-21T08:00:46.864Z,10.00
2023-05-21T08:03:16.264Z,10.98
2023-05-21T08:05:44.791Z,10.63
2023-05-21T08:08:12.947Z,9.93
2023-05-21T08:10:40.390Z,10.00
2023-05-21T08:13:07.749Z,10.40
2023-05-21T08:15:35.246Z,10.73
2023-05-21T08:18:04.312Z,9.48
2023-05-21T08:20:32.489Z,10.57
2023-05-21T08:23:00.759Z,10.38
2023-05-21T08:25:28.139Z,10.70
2023-05-21T08:27:55.934Z,10.20
2023-05-21T08:30:23.306Z,9.95
2023-05-21T08:32:50.945Z,11.15
2023-05-21T08:35:19.683Z,9.93
2023-05-21T08:37:47.070Z,10.02
2023-05-21T08:40:14.537Z,11.27
2023-05-21T08:42:44.632Z,10.85
2023-05-21T08:45:12.790Z,10.48
2023-05-21T08:47:41.983Z,10.82
2023-05-21T08:50:10.442Z,9.32
2023-05-21T08:52:39.187Z,10.75
2023-05-21T08:55:07.059Z,11.13
2023-05-21T08:57:34.605Z,10.60
2023-05-21T09:00:02.668Z,11.50
2023-05-21T09:02:30.911Z,10.65
2023-05-21T09:04:59.434Z,10.95
2023-05-21T09:07:28.967Z,11.57
2023-05-21T09:09:58.113Z,11.30
2023-05-21T09:12:25.891Z,12.25
2023-05-21T09:14:53.407Z,12.52
2023-05-21T09:17:21.028Z,11.65
2023-05-21T09:20:09.503Z,12.35
2023-05-21T09:22:37.259Z,11.35
2023-05-21T09:25:10.024Z,11.90
2023-05-21T09:27:37.658Z,13.07
2023-05-21T09:30:05.522Z,11.18
2023-05-21T09:32:32.925Z,11.65
2023-05-21T09:35:07.722Z,12.75
2023-05-21T09:40:10.564Z,11.48
2023-05-21T09:42:40.060Z,11.82
2023-05-21T09:45:08.267Z,12.15
2023-05-21T09:47:35.673Z,11.50
2023-05-21T09:50:03.066Z,11.85
2023-05-21T09:52:30.573Z,11.00
2023-05-21T09:54:57.901Z,11.88
2023-05-21T09:57:25.941Z,11.60
2023-05-21T09:59:54.842Z,12.13
2023-05-21T10:02:23.112Z,12.15
2023-05-21T10:04:51.608Z,11.20
2023-05-21T10:07:19.891Z,11.77
2023-05-21T10:09:47.829Z,11.48
2023-05-21T10:12:15.535Z,11.50
2023-05-21T10:14:43.663Z,11.65
2023-05-21T10:17:13.350Z,11.80
2023-05-21T10:19:41.707Z,11.60
2023-05-21T10:22:09.145Z,11.70
2023-05-21T10:24:36.785Z,11.30
2023-05-21T10:27:04.789Z,11.27
2023-05-21T10:29:32.262Z,11.95
2023-05-21T10:31:59.881Z,11.43
2023-05-21T10:34:28.948Z,11.35
2023-05-21T10:36:57.026Z,11.63
2023-05-21T10:39:25.273Z,11.52
2023-05-21T10:41:59.146Z,11.75
2023-05-21T10:44:32.530Z,12.27
2023-05-21T10:47:06.314Z,11.70
2023-05-21T10:49:46.918Z,12.32
2023-05-21T10:52:19.480Z,11.55
2023-05-21T10:54:58.804Z,11.70
2023-05-21T10:57:35.178Z,11.32
2023-05-21T11:00:03.512Z,12.35
2023-05-21T11:02:31.177Z,12.23
2023-05-21T11:05:04.081Z,11.70
2023-05-21T11:07:50.264Z,12.32
2023-05-21T11:10:30.921Z,11.35
2023-05-21T11:13:13.315Z,11.57
2023-05-21T11:15:59.307Z,11.23
2023-05-21T11:18:57.478Z,10.82
2023-05-21T11:21:30.418Z,11.70
2023-05-21T11:24:00.927Z,11.55
2023-05-21T11:26:28.686Z,12.90
2023-05-21T11:29:07.762Z,12.90
2023-05-21T11:31:38.459Z,12.15
2023-05-21T11:34:16.060Z,11.70
2023-05-21T11:36:46.329Z,11.80
2023-05-21T11:39:15.438Z,12.52
2023-05-21T11:41:57.600Z,11.88
2023-05-21T11:44:40.843Z,11.63
2023-05-21T11:47:08.908Z,11.95
2023-05-21T11:49:36.936Z,12.30
2023-05-21T11:52:06.471Z,13.00
2023-05-21T11:54:37.214Z,11.95
2023-05-21T11:57:06.692Z,13.27
2023-05-21T11:59:34.380Z,11.63
2023-05-21T12:02:01.875Z,12.27
2023-05-21T12:04:30.530Z,12.43
2023-05-21T12:06:58.447Z,11.57
2023-05-21T12:09:27.214Z,11.82
2023-05-21T12:11:54.588Z,11.85
2023-05-21T12:14:22.433Z,11.02
2023-05-21T12:16:49.823Z,11.90
2023-05-21T12:19:18.441Z,11.88
2023-05-21T12:21:46.047Z,12.48
2023-05-21T12:24:13.492Z,12.27
2023-05-21T12:26:44.372Z,12.57
2023-05-21T12:29:11.727Z,12.25
2023-05-21T12:31:47.798Z,12.63
2023-05-21T12:34:15.468Z,12.23
2023-05-21T12:36:46.159Z,12.52
2023-05-21T12:39:13.639Z,13.38
2023-05-21T12:41:42.421Z,12.75
2023-05-21T12:44:09.866Z,12.68
2023-05-21T12:46:37.357Z,13.40
2023-05-21T12:49:04.743Z,11.80
2023-05-21T12:51:38.738Z,12.88
2023-05-21T12:54:12.339Z,11.35
2023-05-21T12:56:46.371Z,12.15
2023-05-21T12:59:14.230Z,12.30
2023-05-21T13:01:41.693Z,11.88
2023-05-21T13:04:09.109Z,12.55
2023-05-21T13:06:42.861Z,12.50
2023-05-21T13:09:10.227Z,13.15
2023-05-21T13:11:37.580Z,11.60
2023-05-21T13:14:06.275Z,12.57
2023-05-21T13:16:33.616Z,11.77
2023-05-21T13:19:00.998Z,11.45
2023-05-21T13:21:28.434Z,11.50
2023-05-21T13:23:55.835Z,11.90
2023-05-21T13:26:23.214Z,11.45
2023-05-21T13:28:50.533Z,11.35
2023-05-21T13:31:19.225Z,10.93
2023-05-21T13:33:46.590Z,11.27
2023-05-21T13:36:13.977Z,11.70
2023-05-21T13:38:41.320Z,11.40
2023-05-21T13:41:08.647Z,10.57
2023-05-21T13:43:35.990Z,10.50
2023-05-21T13:46:04.309Z,10.90
2023-05-21T13:48:33.001Z,10.55
2023-05-21T13:51:00.412Z,10.32
2023-05-21T13:53:27.783Z,11.25
2023-05-21T13:55:55.146Z,10.93
2023-05-21T13:58:22.544Z,10.07
2023-05-21T14:00:49.921Z,11.45
2023-05-21T14:03:17.278Z,11.02
2023-05-21T14:05:48.249Z,12.25
2023-05-21T14:08:16.537Z,11.60
2023-05-21T14:10:43.950Z,12.40
2023-05-21T14:13:19.505Z,11.60
2023-05-21T14:15:48.359Z,11.93
2023-05-21T14:18:15.719Z,10.80
2023-05-21T14:20:43.021Z,12.65
2023-05-21T14:23:11.737Z,13.32
2023-05-21T14:25:39.101Z,11.35
2023-05-21T14:28:06.581Z,12.70
2023-05-21T14:30:33.906Z,12.48
2023-05-21T14:33:01.373Z,12.55
2023-05-21T14:35:28.749Z,11.88
2023-05-21T14:37:56.131Z,11.57
2023-05-21T14:40:24.825Z,11.52
2023-05-21T14:42:53.103Z,11.63
2023-05-21T14:45:20.609Z,11.25
2023-05-21T14:47:48.828Z,11.35
2023-05-21T14:50:16.754Z,10.48
2023-05-21T14:52:44.862Z,10.73
2023-05-21T14:55:13.785Z,10.77
2023-05-21T14:57:42.512Z,11.20
2023-05-21T15:00:10.257Z,11.18
2023-05-21T15:02:37.793Z,11.77
2023-05-21T15:05:05.421Z,11.57
2023-05-21T15:07:32.936Z,11.90
2023-05-21T15:10:00.330Z,11.75
2023-05-21T15:12:27.698Z,11.82
2023-05-21T15:14:56.388Z,11.30
2023-05-21T15:17:23.776Z,11.35
2023-05-21T15:19:51.229Z,11.15
2023-05-21T15:22:18.641Z,11.30
2023-05-21T15:24:46.158Z,11.05
2023-05-21T15:27:13.654Z,10.80
2023-05-21T15:29:40.990Z,11.05
2023-05-21T15:32:09.724Z,10.52
2023-05-21T15:34:37.150Z,11.73
2023-05-21T15:37:04.672Z,10.88
2023-05-21T15:39:32.025Z,11.85
2023-05-21T15:41:59.435Z,11.48
2023-05-21T15:44:26.919Z,11.82
2023-05-21T15:46:54.698Z,13.00
2023-05-21T15:49:23.689Z,12.15
2023-05-21T15:51:51.525Z,11.35
2023-05-21T15:54:19.368Z,11.68
2023-05-21T15:56:46.785Z,12.05
2023-05-21T15:59:14.159Z,11.85
2023-05-21T16:01:41.776Z,13.23
2023-05-21T16:04:09.551Z,12.75
2023-05-21T16:06:38.840Z,13.73
2023-05-21T16:09:06.353Z,13.57
2023-05-21T16:11:33.797Z,13.38
2023-05-21T16:14:01.162Z,14.02
2023-05-21T16:16:28.694Z,12.82
2023-05-21T16:18:56.099Z,12.10
2023-05-21T16:21:23.947Z,13.63
2023-05-21T16:23:52.728Z,14.20
2023-05-21T16:26:20.188Z,12.77
2023-05-21T16:28:47.653Z,12.00
2023-05-21T16:31:14.997Z,13.35
2023-05-21T16:33:44.801Z,13.15
2023-05-21T16:36:12.145Z,12.88
2023-05-21T16:38:39.716Z,13.40
2023-05-21T16:41:08.413Z,13.35
2023-05-21T16:43:36.121Z,13.43
2023-05-21T16:46:03.608Z,13.15
2023-05-21T16:48:32.187Z,12.98
2023-05-21T16:50:59.593Z,13.57
2023-05-21T16:53:26.914Z,13.07
2023-05-21T16:55:54.270Z,12.82
2023-05-21T16:58:22.971Z,13.95
2023-05-21T17:00:50.335Z,13.38
2023-05-21T17:03:18.177Z,13.00
2023-05-21T17:05:45.716Z,12.75
2023-05-21T17:08:13.077Z,13.15
2023-05-21T17:10:40.411Z,11.68
2023-05-21T17:13:18.246Z,12.88
2023-05-21T17:15:50.510Z,12.73
2023-05-21T17:18:17.923Z,13.80
2023-05-21T17:20:45.392Z,14.10
2023-05-21T17:23:12.900Z,14.60
2023-05-21T17:25:40.891Z,13.50
2023-05-21T17:28:08.582Z,13.68
2023-05-21T17:30:35.949Z,13.43
2023-05-21T17:33:04.745Z,13.32
2023-05-21T17:35:32.120Z,13.68
2023-05-21T17:37:59.469Z,13.88
2023-05-21T17:40:26.791Z,13.85
2023-05-21T17:42:54.135Z,14.45
2023-05-21T17:45:21.589Z,13.80
2023-05-21T17:47:49.157Z,14.05
2023-05-21T17:50:17.897Z,13.75
2023-05-21T17:52:45.254Z,15.02
2023-05-21T17:55:12.608Z,15.80
2023-05-21T17:57:40.064Z,15.55
2023-05-21T18:00:08.463Z,16.65
2023-05-21T18:02:36.241Z,16.95
2023-05-21T18:05:03.792Z,17.20
2023-05-21T18:07:32.496Z,17.77
2023-05-21T18:09:59.958Z,17.45
2023-05-21T18:12:27.280Z,18.10
2023-05-21T18:14:54.626Z,17.95
2023-05-21T18:17:22.036Z,19.45
2023-05-21T18:19:49.537Z,19.55
2023-05-21T18:22:16.862Z,19.05
2023-05-21T18:24:46.119Z,19.77
2023-05-21T18:27:13.606Z,17.48
2023-05-21T18:29:41.000Z,19.98
2023-05-21T18:32:08.736Z,18.15
2023-05-21T18:34:36.188Z,19.67
2023-05-21T18:37:03.548Z,19.42
2023-05-21T18:39:30.896Z,18.23
2023-05-21T18:42:11.996Z,18.48
2023-05-21T18:44:40.056Z,17.83
2023-05-21T18:47:08.140Z,18.48
2023-05-21T18:49:36.084Z,18.38
2023-05-21T18:52:04.009Z,17.52
2023-05-21T18:54:31.456Z,16.48
2023-05-21T18:57:00.343Z,18.05
2023-05-21T18:59:27.846Z,17.65
2023-05-21T19:01:55.344Z,18.27
2023-05-21T19:04:22.851Z,18.67
2023-05-21T19:06:50.267Z,18.10
2023-05-21T19:09:17.672Z,18.17
2023-05-21T19:11:45.067Z,19.38
2023-05-21T19:14:13.738Z,17.63
2023-05-21T19:16:41.135Z,19.42
2023-05-21T19:19:08.611Z,19.85
2023-05-21T19:21:36.473Z,18.25
2023-05-21T19:24:05.909Z,19.58
2023-05-21T19:26:33.626Z,18.75
2023-05-21T19:29:00.997Z,19.38
2023-05-21T19:31:29.780Z,17.42
2023-05-21T19:33:57.259Z,18.58
2023-05-21T19:36:25.348Z,15.30
2023-05-21T19:38:52.695Z,14.35
2023-05-21T19:41:22.499Z,12.90
2023-05-21T19:43:49.837Z,12.10
2023-05-21T19:46:19.841Z,12.90
2023-05-21T19:48:49.528Z,12.38
2023-05-21T19:51:16.976Z,12.40
2023-05-21T19:53:44.374Z,12.27
2023-05-21T19:56:11.818Z,12.32
2023-05-21T19:58:39.152Z,11.85
2023-05-21T20:01:07.325Z,11.35
2023-05-21T20:03:35.930Z,11.77
2023-05-21T20:06:04.931Z,11.02
2023-05-21T20:08:32.287Z,12.13
2023-05-21T20:10:59.711Z,11.05
2023-05-21T20:13:27.223Z,11.35
2023-05-21T20:15:54.616Z,11.15
2023-05-21T20:18:22.042Z,10.75
2023-05-21T20:20:49.438Z,10.82
2023-05-21T20:23:18.192Z,10.93
2023-05-21T20:25:45.531Z,11.07
2023-05-21T20:28:12.905Z,11.50
2023-05-21T20:30:52.893Z,12.05
2023-05-21T20:33:20.651Z,12.40
2023-05-21T20:35:48.082Z,12.90
2023-05-21T20:38:15.670Z,13.60
2023-05-21T20:40:44.613Z,13.57
2023-05-21T20:43:13.699Z,13.52
2023-05-21T20:45:41.829Z,13.43
2023-05-21T20:48:09.624Z,13.32
2023-05-21T20:50:37.351Z,13.50
2023-05-21T20:53:05.037Z,14.40
2023-05-21T20:55:34.603Z,13.93
2023-05-21T20:58:03.951Z,14.25
2023-05-21T21:00:33.244Z,14.90
2023-05-21T21:03:02.030Z,15.63
2023-05-21T21:05:29.492Z,14.98
2023-05-21T21:07:57.262Z,15.93
2023-05-21T21:10:24.944Z,16.23
2023-05-21T21:12:52.297Z,16.73
2023-05-21T21:15:21.025Z,17.42
2023-05-21T21:17:48.392Z,18.38
2023-05-21T21:20:17.342Z,17.90
2023-05-21T21:22:45.108Z,20.40
2023-05-21T21:25:14.198Z,20.33
2023-05-21T21:27:42.350Z,20.63
2023-05-21T21:30:10.279Z,21.25
2023-05-21T21:32:39.046Z,23.77
2023-05-21T21:35:06.862Z,23.58
2023-05-21T21:37:34.270Z,23.25
2023-05-21T21:40:01.634Z,24.08
2023-05-21T21:42:28.967Z,27.30
2023-05-21T21:44:56.289Z,25.67
2023-05-21T21:47:23.643Z,26.83
2023-05-21T21:49:52.406Z,27.30
2023-05-21T21:52:20.597Z,27.20
2023-05-21T21:54:48.027Z,29.85
2023-05-21T21:57:15.379Z,29.92
2023-05-21T21:59:42.857Z,29.77
2023-05-21T22:02:10.223Z,30.63
2023-05-21T22:04:37.624Z,33.28
2023-05-21T22:07:06.544Z,32.08
2023-05-21T22:09:33.889Z,31.60
2023-05-21T22:12:07.495Z,32.50
2023-05-21T22:14:34.987Z,33.72
2023-05-21T22:17:02.754Z,35.88
2023-05-21T22:19:32.660Z,37.08
2023-05-21T22:22:01.884Z,37.42
2023-05-21T22:24:32.539Z,38.38
2023-05-21T22:27:01.092Z,39.42
2023-05-21T22:29:28.434Z,41.53
2023-05-21T22:31:55.904Z,41.92
2023-05-21T22:34:25.045Z,43.25
2023-05-21T22:36:52.379Z,42.05
2023-05-21T22:39:19.705Z,42.95
2023-05-21T22:41:48.450Z,41.40
2023-05-21T22:44:15.880Z,42.75
2023-05-21T22:46:44.241Z,44.55
2023-05-21T22:49:11.582Z,42.60
2023-05-21T22:51:39.102Z,44.78
2023-05-21T22:54:06.512Z,43.80
2023-05-21T22:56:33.866Z,42.90
2023-05-21T22:59:02.524Z,43.90
2023-05-21T23:01:29.944Z,43.97
2023-05-21T23:03:57.348Z,45.70
2023-05-21T23:06:24.686Z,44.67
2023-05-21T23:08:52.014Z,46.40
2023-05-21T23:11:19.347Z,46.45
2023-05-21T23:13:46.719Z,46.58
2023-05-21T23:16:16.793Z,46.65
2023-05-21T23:18:44.193Z,45.28
2023-05-21T23:21:11.612Z,45.40
2023-05-21T23:23:39.042Z,44.92
2023-05-21T23:26:06.402Z,48.17
2023-05-21T23:28:36.366Z,48.67
2023-05-21T23:31:03.775Z,51.08
2023-05-21T23:33:32.471Z,45.85
2023-05-21T23:35:59.888Z,52.40
2023-05-21T23:38:27.236Z,47.03
2023-05-21T23:40:54.551Z,47.50
2023-05-21T23:43:21.930Z,47.60
2023-05-21T23:45:49.326Z,49.38
2023-05-21T23:48:16.717Z,50.60
2023-05-21T23:50:45.562Z,47.28
2023-05-21T23:53:12.906Z,50.65
2023-05-21T23:55:40.736Z,48.75
2023-05-21T23:58:08.137Z,49.38
